»·PEaware :: SWA1355 KSFO-KSAN

SWA1355 :: KSFO-KSAN

FLIGHT INFORMATION

Flight Status: Arrived
Operator:
Southwest Airlines
More flights by this operator :: More flights under this callsign
Pilot: Anonymous 17611 (17611)
Aircraft: Unknown
(B38M)
More flights by this aircraft type
Origin: KSFO San Francisco Intl
United States
Destination: KSAN San Diego Intl-Lindbergh
United States
More flights between these airports :: More routes between these airports
Route: +WESLA4 YYUNG LAX COMIX2
File this flight plan on PilotEdge
Remarks:
Altitude:
(Current/Filed)
41,000ft
Speed:
(Current/Filed)
462kts
Departed: 24-Mar-20 02:43 PM
Arrived: 24-Mar-20 03:50 PM
Distance/Time
Traveled:
388nm/1:06
Distance/Time
To Go:
Arrived

Flight Plot

Page will automatically refresh every two minutes.

Flight plan parsing failed; only flown route is shown


Map Options




Map Legend


Flown Route
Filed Route
Departure Airport
Arrival Airport
Navaid (VOR, NDB)
Fix

Horizontal Profiles

Position Reports

Time Latitude Longitude Heading Altitude Ground
Speed
24-Mar-20 14:15 37.612164 -122.388968 300 19ft 0kts
24-Mar-20 14:16 37.612164 -122.388968 300 19ft 0kts
24-Mar-20 14:17 37.612164 -122.388968 300 19ft 0kts
24-Mar-20 14:18 37.612164 -122.388968 300 19ft 0kts
24-Mar-20 14:19 37.612164 -122.388968 300 19ft 0kts
24-Mar-20 14:20 37.612164 -122.388968 300 19ft 0kts
24-Mar-20 14:21 37.612164 -122.388968 300 19ft 0kts
24-Mar-20 14:22 37.612164 -122.388968 300 19ft 0kts
24-Mar-20 14:23 37.612164 -122.388968 300 19ft 0kts
24-Mar-20 14:24 37.612164 -122.388968 300 19ft 0kts
24-Mar-20 14:25 37.612164 -122.388968 300 19ft 0kts
24-Mar-20 14:26 37.612164 -122.388968 300 19ft 0kts
24-Mar-20 14:27 37.612164 -122.388967 300 19ft 0kts
24-Mar-20 14:28 37.612164 -122.388967 300 19ft 0kts
24-Mar-20 14:29 37.612164 -122.388967 300 19ft 0kts
24-Mar-20 14:30 37.612073 -122.388725 285 19ft 2kts
24-Mar-20 14:31 37.612138 -122.387987 240 19ft 2kts
24-Mar-20 14:32 37.612478 -122.387587 207 19ft 0kts
24-Mar-20 14:33 37.612477 -122.387587 207 19ft 0kts
24-Mar-20 14:34 37.611321 -122.386548 118 19ft 13kts
24-Mar-20 14:35 37.610592 -122.384679 116 19ft 0kts
24-Mar-20 14:36 37.610465 -122.384286 102 19ft 6kts
24-Mar-20 14:37 37.613947 -122.381393 27 19ft 24kts
24-Mar-20 14:38 37.616543 -122.376746 99 19ft 21kts
24-Mar-20 14:39 37.613971 -122.368276 131 19ft 26kts
24-Mar-20 14:40 37.610485 -122.360218 108 19ft 13kts
24-Mar-20 14:41 37.611947 -122.358992 295 19ft 9kts
24-Mar-20 14:42 37.628360 -122.396052 296 1320ft 217kts
24-Mar-20 14:43 37.634181 -122.470767 214 3036ft 245kts
24-Mar-20 14:44 37.566263 -122.477210 180 7257ft 256kts
24-Mar-20 14:45 37.497772 -122.474902 181 10709ft 292kts
24-Mar-20 14:46 37.418724 -122.487057 192 14561ft 309kts
24-Mar-20 14:47 37.328410 -122.504179 194 19045ft 317kts
24-Mar-20 14:48 37.242091 -122.520373 196 22610ft 327kts
24-Mar-20 14:49 37.152084 -122.537182 198 25813ft 336kts
24-Mar-20 14:50 37.057886 -122.554745 201 28517ft 349kts
24-Mar-20 14:51 36.955546 -122.526711 168 31149ft 422kts
24-Mar-20 14:52 36.855735 -122.453620 169 33917ft 418kts
24-Mar-20 14:53 36.756874 -122.380958 169 36473ft 411kts
24-Mar-20 14:54 36.659091 -122.309450 169 38418ft 411kts
24-Mar-20 14:55 36.560687 -122.237762 169 40113ft 410kts
24-Mar-20 14:56 36.461664 -122.166024 169 41209ft 419kts
24-Mar-20 14:57 36.358861 -122.092005 168 41218ft 438kts
24-Mar-20 14:58 36.253774 -122.016075 168 41215ft 437kts
24-Mar-20 14:59 36.148652 -121.940373 168 41211ft 437kts
24-Mar-20 15:00 36.043767 -121.865032 168 41212ft 437kts
24-Mar-20 15:01 35.949048 -121.754985 143 41215ft 501kts
24-Mar-20 15:02 35.865034 -121.619109 144 41234ft 496kts
24-Mar-20 15:03 35.780133 -121.484523 144 41234ft 496kts
24-Mar-20 15:05 35.695478 -121.350868 144 41242ft 497kts
24-Mar-20 15:06 35.613167 -121.221234 145 41213ft 494kts
24-Mar-20 15:07 35.529336 -121.089975 144 41218ft 499kts
24-Mar-20 15:08 35.448503 -120.954229 141 41227ft 509kts
24-Mar-20 15:09 35.368210 -120.815497 141 41240ft 508kts
24-Mar-20 15:10 35.288409 -120.678469 141 41241ft 504kts
24-Mar-20 15:11 35.206655 -120.538953 141 41246ft 508kts
24-Mar-20 15:12 35.124633 -120.399464 141 41251ft 507kts
24-Mar-20 15:13 35.045517 -120.265371 141 41233ft 506kts
24-Mar-20 15:14 34.967935 -120.134294 141 41221ft 503kts
24-Mar-20 15:15 34.888104 -120.000041 140 41194ft 503kts
24-Mar-20 15:16 34.807514 -119.865037 140 41200ft 503kts
24-Mar-20 15:17 34.725680 -119.728475 140 41198ft 503kts
24-Mar-20 15:18 34.643332 -119.591567 140 41203ft 500kts
24-Mar-20 15:19 34.560895 -119.455157 140 41213ft 500kts
24-Mar-20 15:20 34.478337 -119.319029 141 41195ft 500kts
24-Mar-20 15:21 34.396457 -119.184388 141 41203ft 502kts
24-Mar-20 15:22 34.314171 -119.049583 141 41195ft 499kts
24-Mar-20 15:23 34.231817 -118.915328 141 41198ft 501kts
24-Mar-20 15:23 34.162818 -118.803148 141 41200ft 501kts
24-Mar-20 15:25 34.065445 -118.645466 141 41197ft 494kts
24-Mar-20 15:26 33.984870 -118.515184 142 39707ft 481kts
24-Mar-20 15:26 33.919604 -118.413126 147 38383ft 471kts
24-Mar-20 15:27 33.835059 -118.304080 149 36528ft 469kts
24-Mar-20 15:29 33.733241 -118.172115 148 33523ft 476kts
24-Mar-20 15:29 33.660970 -118.077373 146 31243ft 482kts
24-Mar-20 15:30 33.571381 -117.960131 145 28372ft 478kts
24-Mar-20 15:31 33.479613 -117.849541 147 25486ft 462kts
24-Mar-20 15:32 33.386790 -117.746868 148 22597ft 446kts
24-Mar-20 15:33 33.295540 -117.650005 146 19714ft 433kts
24-Mar-20 15:34 33.207481 -117.556755 145 16822ft 409kts
24-Mar-20 15:35 33.124909 -117.470900 149 14061ft 372kts
24-Mar-20 15:36 33.046340 -117.406902 150 12716ft 332kts
24-Mar-20 15:37 32.973812 -117.346404 150 10744ft 312kts
24-Mar-20 15:38 32.907605 -117.291013 150 9766ft 274kts
24-Mar-20 15:39 32.846179 -117.240106 149 8423ft 273kts
24-Mar-20 15:40 32.801280 -117.170926 108 7257ft 285kts
24-Mar-20 15:41 32.782775 -117.085173 106 6258ft 253kts
24-Mar-20 15:42 32.757922 -117.010384 117 5994ft 238kts
24-Mar-20 15:43 32.734265 -116.936941 151 4562ft 224kts
24-Mar-20 15:44 32.698211 -116.970751 248 3857ft 197kts
24-Mar-20 15:45 32.694416 -117.029066 284 2882ft 184kts
24-Mar-20 15:46 32.707530 -117.082653 284 2012ft 160kts
24-Mar-20 15:47 32.718971 -117.129452 285 1206ft 143kts
24-Mar-20 15:48 32.729547 -117.173070 285 231ft 131kts
24-Mar-20 15:49 32.734235 -117.194759 215 22ft 0kts
24-Mar-20 15:50 32.732393 -117.195222 300 22ft 3kts
24-Mar-20 15:51 32.732558 -117.195470 309 22ft 0kts

Navigation Log

Ident Type
Flight plan parsing failed, navigation log unavailable